createdAt,value
2023-05-06T00:00:11.198Z,4120.00
2023-05-06T00:01:11.210Z,4138.00
2023-05-06T00:02:11.207Z,4114.00
2023-05-06T00:03:11.331Z,4111.00
2023-05-06T00:04:11.275Z,4114.00
2023-05-06T00:05:11.683Z,4126.00
2023-05-06T00:06:11.217Z,4139.00
2023-05-06T00:07:11.240Z,4149.00
2023-05-06T00:08:11.263Z,4153.00
2023-05-06T00:09:11.263Z,4136.00
2023-05-06T00:10:11.351Z,4124.00
2023-05-06T00:11:11.275Z,4113.00
2023-05-06T00:12:11.302Z,4113.00
2023-05-06T00:13:11.315Z,4126.00
2023-05-06T00:14:11.335Z,4139.00
2023-05-06T00:15:11.607Z,4160.00
2023-05-06T00:16:11.421Z,4173.00
2023-05-06T00:17:11.355Z,4183.00
2023-05-06T00:18:11.334Z,4183.00
2023-05-06T00:19:11.352Z,4177.00
2023-05-06T00:20:11.382Z,4201.00
2023-05-06T00:21:11.429Z,4174.00
2023-05-06T00:22:11.449Z,4181.00
2023-05-06T00:23:11.462Z,4180.00
2023-05-06T00:24:11.444Z,4173.00
2023-05-06T00:25:11.684Z,4187.00
2023-05-06T00:26:11.458Z,4176.00
2023-05-06T00:27:11.518Z,4173.00
2023-05-06T00:28:11.528Z,4182.00
2023-05-06T00:29:11.528Z,4165.00
2023-05-06T00:30:11.554Z,4164.00
2023-05-06T00:31:11.605Z,4171.00
2023-05-06T00:32:11.678Z,4172.00
2023-05-06T00:33:11.733Z,4176.00
2023-05-06T00:34:11.627Z,4184.00
2023-05-06T00:35:11.674Z,4193.00
2023-05-06T00:36:11.623Z,4186.00
2023-05-06T00:37:11.652Z,4193.00
2023-05-06T00:38:11.601Z,4190.00
2023-05-06T00:39:11.626Z,4193.00
2023-05-06T00:40:11.617Z,4194.00
2023-05-06T00:41:11.664Z,4201.00
2023-05-06T00:42:11.682Z,4187.00
2023-05-06T00:43:11.695Z,4211.00
2023-05-06T00:44:11.705Z,4197.00
2023-05-06T00:45:11.974Z,4190.00
2023-05-06T00:46:11.806Z,4198.00
2023-05-06T00:47:11.739Z,4208.00
2023-05-06T00:48:11.797Z,4210.00
2023-05-06T00:49:11.924Z,4239.00
2023-05-06T00:50:11.857Z,4229.00
2023-05-06T00:51:11.850Z,4218.00
2023-05-06T00:52:11.850Z,4203.00
2023-05-06T00:53:11.847Z,4168.00
2023-05-06T00:54:11.881Z,4105.00
2023-05-06T00:55:11.916Z,4065.00
2023-05-06T00:56:11.935Z,4035.00
2023-05-06T00:57:11.992Z,4060.00
2023-05-06T00:58:11.931Z,4034.00
2023-05-06T00:59:11.975Z,4034.00
2023-05-06T01:00:12.003Z,4015.00
2023-05-06T01:01:12.112Z,3996.00
2023-05-06T01:02:12.118Z,3973.00
2023-05-06T01:03:12.092Z,3962.00
2023-05-06T01:04:12.054Z,3961.00
2023-05-06T01:05:12.443Z,3985.00
2023-05-06T01:06:12.093Z,3999.00
2023-05-06T01:07:12.125Z,4010.00
2023-05-06T01:08:12.176Z,4020.00
2023-05-06T01:09:12.144Z,4010.00
2023-05-06T01:10:12.184Z,4002.00
2023-05-06T01:11:13.515Z,3969.00
2023-05-06T01:12:12.156Z,3955.00
2023-05-06T01:13:12.272Z,3916.00
2023-05-06T01:14:12.099Z,3918.00
2023-05-06T01:15:12.327Z,3894.00
2023-05-06T01:16:12.014Z,3868.00
2023-05-06T01:17:12.060Z,3818.00
2023-05-06T01:18:11.991Z,3826.00
2023-05-06T01:19:11.973Z,3836.00
2023-05-06T01:20:11.907Z,3810.00
2023-05-06T01:21:11.940Z,3798.00
2023-05-06T01:22:11.914Z,3778.00
2023-05-06T01:23:11.863Z,3765.00
2023-05-06T01:24:11.796Z,3746.00
2023-05-06T01:25:11.884Z,3716.00
2023-05-06T01:26:11.757Z,3698.00
2023-05-06T01:27:11.767Z,3690.00
2023-05-06T01:28:11.736Z,3671.00
2023-05-06T01:29:11.634Z,3686.00
2023-05-06T01:30:11.650Z,3712.00
2023-05-06T01:31:11.646Z,3723.00
2023-05-06T01:32:11.601Z,3750.00
2023-05-06T01:33:11.562Z,3737.00
2023-05-06T01:34:11.532Z,3740.00
2023-05-06T01:35:11.587Z,3730.00
2023-05-06T01:36:11.440Z,3737.00
2023-05-06T01:37:11.486Z,3738.00
2023-05-06T01:38:11.341Z,3750.00
2023-05-06T01:39:11.323Z,3768.00
2023-05-06T01:40:11.271Z,3800.00
2023-05-06T01:41:11.280Z,3815.00
2023-05-06T01:42:11.220Z,3841.00
2023-05-06T01:43:11.153Z,3833.00
2023-05-06T01:44:11.168Z,3834.00
2023-05-06T01:45:11.256Z,3853.00
2023-05-06T01:46:11.100Z,3869.00
2023-05-06T01:47:11.023Z,3887.00
2023-05-06T01:48:11.030Z,3912.00
2023-05-06T01:49:11.004Z,3914.00
2023-05-06T01:50:10.931Z,3911.00
2023-05-06T01:51:10.916Z,3911.00
2023-05-06T01:52:10.883Z,3913.00
2023-05-06T01:53:10.913Z,3918.00
2023-05-06T01:54:10.826Z,3932.00
2023-05-06T01:55:11.001Z,3939.00
2023-05-06T01:56:10.752Z,3931.00
2023-05-06T01:57:10.747Z,3934.00
2023-05-06T01:58:10.691Z,3945.00
2023-05-06T01:59:10.695Z,3943.00
2023-05-06T02:00:10.625Z,3954.00
2023-05-06T02:01:10.709Z,3957.00
2023-05-06T02:02:10.703Z,3963.00
2023-05-06T02:03:10.804Z,3960.00
2023-05-06T02:04:10.727Z,3966.00
2023-05-06T02:05:10.932Z,3969.00
2023-05-06T02:06:10.743Z,3988.00
2023-05-06T02:07:10.794Z,3981.00
2023-05-06T02:08:10.804Z,3983.00
2023-05-06T02:09:10.922Z,3979.00
2023-05-06T02:10:10.838Z,3997.00
2023-05-06T02:11:10.836Z,3992.00
2023-05-06T02:12:10.891Z,3997.00
2023-05-06T02:13:10.916Z,3993.00
2023-05-06T02:14:10.915Z,3998.00
2023-05-06T02:15:11.106Z,3973.00
2023-05-06T02:16:10.949Z,3984.00
2023-05-06T02:17:10.989Z,3975.00
2023-05-06T02:18:10.972Z,3974.00
2023-05-06T02:19:11.009Z,3959.00
2023-05-06T02:20:11.037Z,3952.00
2023-05-06T02:21:11.045Z,3944.00
2023-05-06T02:22:11.036Z,3947.00
2023-05-06T02:23:11.089Z,3952.00
2023-05-06T02:24:11.059Z,3960.00
2023-05-06T02:25:11.276Z,3968.00
2023-05-06T02:26:11.141Z,3972.00
2023-05-06T02:27:11.151Z,3960.00
2023-05-06T02:28:11.165Z,3964.00
2023-05-06T02:29:11.194Z,3956.00
2023-05-06T02:30:11.190Z,3955.00
2023-05-06T02:31:11.258Z,3954.00
2023-05-06T02:32:11.224Z,3957.00
2023-05-06T02:33:11.212Z,3959.00
2023-05-06T02:34:11.268Z,3952.00
2023-05-06T02:35:11.480Z,3962.00
2023-05-06T02:36:11.297Z,3957.00
2023-05-06T02:37:11.306Z,3965.00
2023-05-06T02:38:11.306Z,3953.00
2023-05-06T02:39:11.355Z,3942.00
2023-05-06T02:40:11.409Z,3907.00
2023-05-06T02:41:11.426Z,3885.00
2023-05-06T02:42:11.426Z,3872.00
2023-05-06T02:43:11.420Z,3866.00
2023-05-06T02:44:11.388Z,3856.00
2023-05-06T02:45:11.633Z,3843.00
2023-05-06T02:46:11.494Z,3857.00
2023-05-06T02:47:11.463Z,3871.00
2023-05-06T02:48:11.443Z,3880.00
2023-05-06T02:49:11.445Z,3886.00
2023-05-06T02:50:11.471Z,3900.00
2023-05-06T02:51:11.472Z,3888.00
2023-05-06T02:52:11.484Z,3878.00
2023-05-06T02:53:11.498Z,3831.00
2023-05-06T02:54:11.504Z,3804.00
2023-05-06T02:55:11.658Z,3774.00
2023-05-06T02:56:11.571Z,3767.00
2023-05-06T02:57:11.612Z,3765.00
2023-05-06T02:58:11.618Z,3751.00
2023-05-06T02:59:11.552Z,3748.00
2023-05-06T03:00:11.589Z,3738.00
2023-05-06T03:01:11.639Z,3732.00
2023-05-06T03:02:11.599Z,3708.00
2023-05-06T03:03:11.593Z,3686.00
2023-05-06T03:04:11.603Z,3683.00
2023-05-06T03:05:11.737Z,3680.00
2023-05-06T03:06:11.580Z,3655.00
2023-05-06T03:07:11.596Z,3642.00
2023-05-06T03:08:11.590Z,3620.00
2023-05-06T03:09:11.650Z,3604.00
2023-05-06T03:10:11.634Z,3605.00
2023-05-06T03:11:11.632Z,3594.00
2023-05-06T03:12:11.638Z,3609.00
2023-05-06T03:13:11.742Z,3608.00
2023-05-06T03:14:11.675Z,3625.00
2023-05-06T03:15:11.782Z,3635.00
2023-05-06T03:16:11.718Z,3665.00
2023-05-06T03:17:11.668Z,3674.00
2023-05-06T03:18:11.710Z,3660.00
2023-05-06T03:19:11.684Z,3631.00
2023-05-06T03:20:11.677Z,3616.00
2023-05-06T03:21:11.744Z,3610.00
2023-05-06T03:22:11.715Z,3612.00
2023-05-06T03:23:11.713Z,3651.00
2023-05-06T03:24:11.769Z,3646.00
2023-05-06T03:25:11.973Z,3640.00
2023-05-06T03:26:11.740Z,3657.00
2023-05-06T03:27:11.757Z,3673.00
2023-05-06T03:28:11.765Z,3700.00
2023-05-06T03:29:11.940Z,3703.00
2023-05-06T03:30:11.781Z,3693.00
2023-05-06T03:31:11.788Z,3687.00
2023-05-06T03:32:11.838Z,3681.00
2023-05-06T03:33:11.838Z,3681.00
2023-05-06T03:34:11.898Z,3689.00
2023-05-06T03:35:12.086Z,3671.00
2023-05-06T03:36:11.880Z,3648.00
2023-05-06T03:37:11.922Z,3641.00
2023-05-06T03:38:11.915Z,3646.00
2023-05-06T03:39:11.954Z,3658.00
2023-05-06T03:40:11.994Z,3663.00
2023-05-06T03:41:11.988Z,3663.00
2023-05-06T03:42:11.999Z,3641.00
2023-05-06T03:43:11.985Z,3629.00
2023-05-06T03:44:12.024Z,3629.00
2023-05-06T03:45:12.565Z,3616.00
2023-05-06T03:46:12.073Z,3603.00
2023-05-06T03:47:12.065Z,3626.00
2023-05-06T03:48:12.128Z,3634.00
2023-05-06T03:49:12.109Z,3620.00
2023-05-06T03:50:12.156Z,3606.00
2023-05-06T03:51:12.159Z,3599.00
2023-05-06T03:52:12.184Z,3625.00
2023-05-06T03:53:12.206Z,3613.00
2023-05-06T03:54:12.189Z,3598.00
2023-05-06T03:55:12.401Z,3581.00
2023-05-06T03:56:12.185Z,3585.00
2023-05-06T03:57:12.227Z,3570.00
2023-05-06T03:58:12.245Z,3577.00
2023-05-06T03:59:12.259Z,3592.00
2023-05-06T04:00:12.279Z,3589.00
2023-05-06T04:01:12.431Z,3586.00
2023-05-06T04:02:12.360Z,3583.00
2023-05-06T04:03:12.427Z,3562.00
2023-05-06T04:04:12.518Z,3537.00
2023-05-06T04:05:12.458Z,3511.00
2023-05-06T04:06:12.394Z,3476.00
2023-05-06T04:07:12.444Z,3441.00
2023-05-06T04:08:12.492Z,3410.00
2023-05-06T04:09:12.488Z,3392.00
2023-05-06T04:10:12.503Z,3348.00
2023-05-06T04:11:12.513Z,3324.00
2023-05-06T04:12:12.525Z,3321.00
2023-05-06T04:13:12.584Z,3311.00
2023-05-06T04:14:12.551Z,3285.00
2023-05-06T04:15:12.728Z,3280.00
2023-05-06T04:16:12.648Z,3261.00
2023-05-06T04:17:12.645Z,3225.00
2023-05-06T04:18:12.586Z,3221.00
2023-05-06T04:19:12.606Z,3198.00
2023-05-06T04:20:12.603Z,3203.00
2023-05-06T04:21:12.613Z,3190.00
2023-05-06T04:22:12.611Z,3178.00
2023-05-06T04:23:12.598Z,3182.00
2023-05-06T04:24:12.598Z,3180.00
2023-05-06T04:25:12.747Z,3167.00
2023-05-06T04:26:12.605Z,3183.00
2023-05-06T04:27:12.614Z,3181.00
2023-05-06T04:28:12.607Z,3186.00
2023-05-06T04:29:12.600Z,3176.00
2023-05-06T04:30:12.659Z,3166.00
2023-05-06T04:31:12.616Z,3176.00
2023-05-06T04:32:12.626Z,3183.00
2023-05-06T04:33:12.697Z,3208.00
2023-05-06T04:34:12.596Z,3227.00
2023-05-06T04:35:12.705Z,3230.00
2023-05-06T04:36:12.610Z,3234.00
2023-05-06T04:37:12.618Z,3238.00
2023-05-06T04:38:12.622Z,3242.00
2023-05-06T04:39:12.615Z,3231.00
2023-05-06T04:40:12.605Z,3224.00
2023-05-06T04:41:12.628Z,3231.00
2023-05-06T04:42:12.660Z,3226.00
2023-05-06T04:43:12.656Z,3228.00
2023-05-06T04:44:12.674Z,3217.00
2023-05-06T04:45:12.671Z,3241.00
2023-05-06T04:46:12.711Z,3232.00
2023-05-06T04:47:12.643Z,3246.00
2023-05-06T04:48:12.637Z,3303.00
2023-05-06T04:49:12.807Z,3332.00
2023-05-06T04:50:12.644Z,3327.00
2023-05-06T04:51:12.613Z,3335.00
2023-05-06T04:52:12.578Z,3337.00
2023-05-06T04:53:12.614Z,3350.00
2023-05-06T04:54:12.652Z,3375.00
2023-05-06T04:55:12.906Z,3397.00
2023-05-06T04:56:12.649Z,3411.00
2023-05-06T04:57:12.655Z,3436.00
2023-05-06T04:58:12.648Z,3420.00
2023-05-06T04:59:13.227Z,3434.00
2023-05-06T05:00:12.700Z,3466.00
2023-05-06T05:01:12.686Z,3454.00
2023-05-06T05:02:12.660Z,3470.00
2023-05-06T05:03:12.814Z,3461.00
2023-05-06T05:04:12.662Z,3456.00
2023-05-06T05:05:12.854Z,3456.00
2023-05-06T05:06:12.670Z,3468.00
2023-05-06T05:07:12.691Z,3446.00
2023-05-06T05:08:12.683Z,3435.00
2023-05-06T05:09:12.672Z,3438.00
2023-05-06T05:10:12.675Z,3435.00
2023-05-06T05:11:12.711Z,3451.00
2023-05-06T05:12:12.766Z,3471.00
2023-05-06T05:13:12.718Z,3481.00
2023-05-06T05:14:12.728Z,3464.00
2023-05-06T05:15:12.953Z,3458.00
2023-05-06T05:16:12.757Z,3450.00
2023-05-06T05:17:12.828Z,3451.00
2023-05-06T05:18:12.849Z,3448.00
2023-05-06T05:19:12.812Z,3412.00
2023-05-06T05:20:12.816Z,3412.00
2023-05-06T05:21:12.903Z,3409.00
2023-05-06T05:22:12.889Z,3395.00
2023-05-06T05:23:12.830Z,3384.00
2023-05-06T05:24:12.877Z,3343.00
2023-05-06T05:25:13.200Z,3322.00
2023-05-06T05:26:12.857Z,3299.00
2023-05-06T05:27:12.860Z,3275.00
2023-05-06T05:28:12.815Z,3250.00
2023-05-06T05:29:13.732Z,3210.00
2023-05-06T05:30:12.813Z,3176.00
2023-05-06T05:31:12.821Z,3138.00
2023-05-06T05:32:12.810Z,3106.00
2023-05-06T05:33:12.851Z,3114.00
2023-05-06T05:34:12.789Z,3086.00
2023-05-06T05:35:12.826Z,3053.00
2023-05-06T05:36:12.787Z,3023.00
2023-05-06T05:37:12.853Z,3016.00
2023-05-06T05:38:12.789Z,2990.00
2023-05-06T05:39:12.774Z,2994.00
2023-05-06T05:40:12.782Z,2984.00
2023-05-06T05:41:13.127Z,2966.00
2023-05-06T05:42:12.820Z,2966.00
2023-05-06T05:43:12.828Z,2944.00
2023-05-06T05:44:12.777Z,2957.00
2023-05-06T05:45:12.783Z,2974.00
2023-05-06T05:46:12.818Z,2980.00
2023-05-06T05:47:12.798Z,3009.00
2023-05-06T05:48:12.730Z,3014.00
2023-05-06T05:49:12.722Z,3005.00
2023-05-06T05:50:12.716Z,3034.00
2023-05-06T05:51:12.726Z,3041.00
2023-05-06T05:52:12.767Z,3067.00
2023-05-06T05:53:12.753Z,3072.00
2023-05-06T05:54:12.800Z,3081.00
2023-05-06T05:55:13.738Z,3096.00
2023-05-06T05:56:12.812Z,3091.00
2023-05-06T05:57:12.781Z,3117.00
2023-05-06T05:58:12.825Z,3124.00
2023-05-06T05:59:12.804Z,3125.00
2023-05-06T06:00:13.732Z,3123.00
2023-05-06T06:01:12.789Z,3130.00
2023-05-06T06:02:12.847Z,3141.00
2023-05-06T06:03:12.960Z,3150.00
2023-05-06T06:04:12.910Z,3154.00
2023-05-06T06:05:12.882Z,3158.00
2023-05-06T06:06:12.885Z,3157.00
2023-05-06T06:07:12.936Z,3161.00
2023-05-06T06:08:12.894Z,3171.00
2023-05-06T06:09:12.929Z,3178.00
2023-05-06T06:10:12.952Z,3179.00
2023-05-06T06:11:12.951Z,3200.00
2023-05-06T06:12:12.948Z,3210.00
2023-05-06T06:13:12.957Z,3214.00
2023-05-06T06:14:12.993Z,3229.00
2023-05-06T06:15:12.965Z,3244.00
2023-05-06T06:16:13.144Z,3254.00
2023-05-06T06:17:13.062Z,3252.00
2023-05-06T06:18:13.058Z,3236.00
2023-05-06T06:19:13.039Z,3188.00
2023-05-06T06:20:13.755Z,3160.00
2023-05-06T06:21:13.085Z,3154.00
2023-05-06T06:22:13.112Z,3130.00
2023-05-06T06:23:13.104Z,3139.00
2023-05-06T06:24:13.101Z,3138.00
2023-05-06T06:25:13.255Z,3163.00
2023-05-06T06:26:13.149Z,3171.00
2023-05-06T06:27:13.193Z,3179.00
2023-05-06T06:28:13.135Z,3195.00
2023-05-06T06:29:13.177Z,3209.00
2023-05-06T06:30:13.176Z,3213.00
2023-05-06T06:31:13.195Z,3225.00
2023-05-06T06:32:13.285Z,3237.00
2023-05-06T06:33:13.197Z,3228.00
2023-05-06T06:34:13.208Z,3231.00
2023-05-06T06:35:13.248Z,3231.00
2023-05-06T06:36:13.257Z,3209.00
2023-05-06T06:37:13.247Z,3186.00
2023-05-06T06:38:13.243Z,3144.00
2023-05-06T06:39:13.252Z,3117.00
2023-05-06T06:40:13.290Z,3118.00
2023-05-06T06:41:13.315Z,3108.00
2023-05-06T06:42:13.297Z,3096.00
2023-05-06T06:43:13.266Z,3075.00
2023-05-06T06:44:13.235Z,3066.00
2023-05-06T06:45:13.316Z,3048.00
2023-05-06T06:46:13.297Z,3042.00
2023-05-06T06:47:13.229Z,3021.00
2023-05-06T06:48:13.277Z,3025.00
2023-05-06T06:49:13.277Z,3020.00
2023-05-06T06:50:13.254Z,3025.00
2023-05-06T06:51:13.249Z,3013.00
2023-05-06T06:52:13.273Z,3017.00
2023-05-06T06:53:13.269Z,3000.00
2023-05-06T06:54:13.282Z,2998.00
2023-05-06T06:55:13.427Z,2993.00
2023-05-06T06:56:13.283Z,2982.00
2023-05-06T06:57:13.337Z,2959.00
2023-05-06T06:58:13.305Z,2924.00
2023-05-06T06:59:13.245Z,2917.00
2023-05-06T07:00:13.262Z,2886.00
2023-05-06T07:01:13.300Z,2859.00
2023-05-06T07:02:13.292Z,2816.00
2023-05-06T07:03:13.258Z,2782.00
2023-05-06T07:04:13.329Z,2756.00
2023-05-06T07:05:13.368Z,2714.00
2023-05-06T07:06:13.267Z,2682.00
2023-05-06T07:07:13.275Z,2631.00
2023-05-06T07:08:13.244Z,2607.00
2023-05-06T07:09:13.265Z,2565.00
2023-05-06T07:10:13.275Z,2536.00
2023-05-06T07:11:13.264Z,2499.00
2023-05-06T07:12:13.272Z,2484.00
2023-05-06T07:13:13.533Z,2442.00
2023-05-06T07:14:13.264Z,2393.00
2023-05-06T07:15:13.518Z,2377.00
2023-05-06T07:16:13.264Z,2359.00
2023-05-06T07:17:13.315Z,2353.00
2023-05-06T07:18:13.329Z,2331.00
2023-05-06T07:19:13.295Z,2319.00
2023-05-06T07:20:13.345Z,2313.00
2023-05-06T07:21:13.306Z,2304.00
2023-05-06T07:22:13.306Z,2314.00
2023-05-06T07:23:13.318Z,2314.00
2023-05-06T07:24:13.313Z,2318.00
2023-05-06T07:25:13.408Z,2299.00
2023-05-06T07:26:13.332Z,2286.00
2023-05-06T07:27:13.350Z,2319.00
2023-05-06T07:28:13.331Z,2333.00
2023-05-06T07:29:13.425Z,2332.00
2023-05-06T07:30:13.294Z,2311.00
2023-05-06T07:31:13.380Z,2279.00
2023-05-06T07:32:13.290Z,2260.00
2023-05-06T07:33:13.306Z,2305.00
2023-05-06T07:34:13.294Z,2280.00
2023-05-06T07:35:13.339Z,2275.00
2023-05-06T07:36:13.247Z,2258.00
2023-05-06T07:37:13.270Z,2241.00
2023-05-06T07:38:13.257Z,2249.00
2023-05-06T07:39:13.266Z,2236.00
2023-05-06T07:40:13.280Z,2255.00
2023-05-06T07:41:13.268Z,2237.00
2023-05-06T07:42:13.283Z,2235.00
2023-05-06T07:43:13.286Z,2232.00
2023-05-06T07:44:13.248Z,2240.00
2023-05-06T07:45:13.449Z,2219.00
2023-05-06T07:46:13.312Z,2218.00
2023-05-06T07:47:13.309Z,2208.00
2023-05-06T07:48:13.369Z,2231.00
2023-05-06T07:49:13.266Z,2264.00
2023-05-06T07:50:13.317Z,2315.00
2023-05-06T07:51:13.317Z,2380.00
2023-05-06T07:52:13.347Z,2387.00
2023-05-06T07:53:13.331Z,2414.00
2023-05-06T07:54:13.357Z,2415.00
2023-05-06T07:55:13.631Z,2426.00
2023-05-06T07:56:13.378Z,2447.00
2023-05-06T07:57:13.465Z,2460.00
2023-05-06T07:58:13.408Z,2469.00
2023-05-06T07:59:13.417Z,2519.00
2023-05-06T08:00:13.429Z,2537.00
2023-05-06T08:01:13.519Z,2588.00
2023-05-06T08:02:13.507Z,2604.00
2023-05-06T08:03:13.540Z,2631.00
2023-05-06T08:04:13.712Z,2629.00
2023-05-06T08:05:13.511Z,2633.00
2023-05-06T08:06:13.477Z,2666.00
2023-05-06T08:07:13.529Z,2687.00
2023-05-06T08:08:13.529Z,2718.00
2023-05-06T08:09:22.004Z,2691.00
2023-05-06T08:10:14.504Z,2692.00
2023-05-06T08:11:13.442Z,2697.00
2023-05-06T08:12:13.434Z,2723.00
2023-05-06T08:13:13.487Z,2763.00
2023-05-06T08:14:13.337Z,2832.00
2023-05-06T08:15:13.407Z,2855.00
2023-05-06T08:16:13.284Z,2843.00
2023-05-06T08:17:13.265Z,2843.00
2023-05-06T08:18:21.530Z,2836.00
2023-05-06T08:19:14.113Z,2838.00
2023-05-06T08:20:13.057Z,2841.00
2023-05-06T08:21:13.052Z,2853.00
2023-05-06T08:22:12.997Z,2910.00
2023-05-06T08:23:12.953Z,2925.00
2023-05-06T08:24:12.890Z,2955.00
2023-05-06T08:25:12.996Z,2999.00
2023-05-06T08:26:12.793Z,2985.00
2023-05-06T08:27:12.764Z,2970.00
2023-05-06T08:28:12.720Z,2956.00
2023-05-06T08:29:12.678Z,2850.00
2023-05-06T08:30:12.722Z,2620.00
2023-05-06T08:31:12.768Z,2465.00
2023-05-06T08:32:12.741Z,2399.00
2023-05-06T08:33:12.794Z,2409.00
2023-05-06T08:34:12.798Z,2394.00
2023-05-06T08:35:12.977Z,2330.00
2023-05-06T08:36:12.797Z,2283.00
2023-05-06T08:37:12.793Z,2273.00
2023-05-06T08:38:12.805Z,2246.00
2023-05-06T08:39:12.762Z,2232.00
2023-05-06T08:40:12.777Z,2275.00
2023-05-06T08:41:12.792Z,2293.00
2023-05-06T08:42:12.835Z,2258.00
2023-05-06T08:43:12.835Z,2193.00
2023-05-06T08:44:12.785Z,2147.00
2023-05-06T08:45:12.866Z,2114.00
2023-05-06T08:46:12.810Z,2056.00
2023-05-06T08:47:12.809Z,2039.00
2023-05-06T08:48:12.852Z,1984.00
2023-05-06T08:49:12.852Z,1965.00
2023-05-06T08:50:12.877Z,1909.00
2023-05-06T08:51:12.849Z,1832.00
2023-05-06T08:52:12.801Z,1804.00
2023-05-06T08:53:12.807Z,1801.00
2023-05-06T08:54:12.803Z,1789.00
2023-05-06T08:55:13.109Z,1756.00
2023-05-06T08:56:12.886Z,1776.00
2023-05-06T08:57:12.888Z,1765.00
2023-05-06T08:58:12.885Z,1771.00
2023-05-06T08:59:12.880Z,1754.00
2023-05-06T09:00:12.915Z,1750.00
2023-05-06T09:01:12.911Z,1747.00
2023-05-06T09:02:12.938Z,1691.00
2023-05-06T09:03:13.061Z,1658.00
2023-05-06T09:04:12.896Z,1625.00
2023-05-06T09:05:13.157Z,1568.00
2023-05-06T09:06:12.930Z,1576.00
2023-05-06T09:07:12.910Z,1550.00
2023-05-06T09:08:12.910Z,1489.00
2023-05-06T09:09:12.899Z,1463.00
2023-05-06T09:10:12.886Z,1445.00
2023-05-06T09:11:12.924Z,1439.00
2023-05-06T09:12:12.900Z,1490.00
2023-05-06T09:13:13.020Z,1515.00
2023-05-06T09:14:12.909Z,1522.00
2023-05-06T09:15:13.181Z,1548.00
2023-05-06T09:16:12.989Z,1540.00
2023-05-06T09:17:12.966Z,1546.00
2023-05-06T09:18:13.041Z,1545.00
2023-05-06T09:19:12.959Z,1552.00
2023-05-06T09:20:12.922Z,1558.00
2023-05-06T09:21:12.902Z,1536.00
2023-05-06T09:22:12.938Z,1553.00
2023-05-06T09:23:12.944Z,1559.00
2023-05-06T09:24:12.914Z,1580.00
2023-05-06T09:25:13.073Z,1564.00
2023-05-06T09:26:12.921Z,1549.00
2023-05-06T09:27:15.066Z,1558.00
2023-05-06T09:28:12.938Z,1576.00
2023-05-06T09:29:12.943Z,1561.00
2023-05-06T09:30:12.877Z,1507.00
2023-05-06T09:31:12.915Z,1512.00
2023-05-06T09:32:12.892Z,1506.00
2023-05-06T09:33:12.942Z,1521.00
2023-05-06T09:34:12.920Z,1549.00
2023-05-06T09:35:13.133Z,1566.00
2023-05-06T09:36:12.884Z,1571.00
2023-05-06T09:37:12.875Z,1546.00
2023-05-06T09:38:12.941Z,1558.00
2023-05-06T09:39:12.834Z,1551.00
2023-05-06T09:40:12.847Z,1565.00
2023-05-06T09:41:12.822Z,1561.00
2023-05-06T09:42:12.871Z,1597.00
2023-05-06T09:43:12.813Z,1586.00
2023-05-06T09:44:12.864Z,1593.00
2023-05-06T09:45:12.939Z,1618.00
2023-05-06T09:46:12.826Z,1606.00
2023-05-06T09:47:12.782Z,1613.00
2023-05-06T09:48:12.811Z,1625.00
2023-05-06T09:49:12.770Z,1652.00
2023-05-06T09:50:12.717Z,1657.00
2023-05-06T09:51:12.696Z,1689.00
2023-05-06T09:52:12.737Z,1687.00
2023-05-06T09:53:12.741Z,1660.00
2023-05-06T09:54:12.680Z,1699.00
2023-05-06T09:55:12.914Z,1704.00
2023-05-06T09:56:12.655Z,1682.00
2023-05-06T09:57:12.640Z,1647.00
2023-05-06T09:58:12.599Z,1615.00
2023-05-06T09:59:12.594Z,1643.00
2023-05-06T10:00:12.678Z,1638.00
2023-05-06T10:01:15.195Z,1638.00
2023-05-06T10:02:13.582Z,1639.00
2023-05-06T10:03:12.619Z,1641.00
2023-05-06T10:04:12.567Z,1654.00
2023-05-06T10:05:12.673Z,1654.00
2023-05-06T10:06:12.335Z,1675.00
2023-05-06T10:07:12.306Z,1688.00
2023-05-06T10:08:12.292Z,1702.00
2023-05-06T10:09:12.222Z,1703.00
2023-05-06T10:10:12.287Z,1735.00
2023-05-06T10:11:12.215Z,1793.00
2023-05-06T10:12:12.112Z,1890.00
2023-05-06T10:13:12.147Z,1927.00
2023-05-06T10:14:12.036Z,1961.00
2023-05-06T10:15:12.183Z,1991.00
2023-05-06T10:16:14.556Z,1994.00
2023-05-06T10:17:11.957Z,2005.00
2023-05-06T10:18:11.821Z,2013.00
2023-05-06T10:19:11.800Z,2039.00
2023-05-06T10:20:11.730Z,2052.00
2023-05-06T10:21:11.703Z,2089.00
2023-05-06T10:22:11.642Z,2115.00
2023-05-06T10:23:11.591Z,2160.00
2023-05-06T10:24:11.647Z,2205.00
2023-05-06T10:25:11.687Z,2268.00
2023-05-06T10:26:11.499Z,2258.00
2023-05-06T10:27:11.437Z,2292.00
2023-05-06T10:28:23.011Z,2310.00
2023-05-06T10:29:12.356Z,2313.00
2023-05-06T10:30:11.271Z,2325.00
2023-05-06T10:31:11.283Z,2352.00
2023-05-06T10:32:11.171Z,2395.00
2023-05-06T10:33:11.128Z,2447.00
2023-05-06T10:34:11.126Z,2483.00
2023-05-06T10:35:11.265Z,2479.00
2023-05-06T10:36:11.067Z,2470.00
2023-05-06T10:37:10.960Z,2470.00
2023-05-06T10:38:10.912Z,2527.00
2023-05-06T10:39:10.913Z,2510.00
2023-05-06T10:40:10.932Z,2578.00
2023-05-06T10:41:10.968Z,2772.00
2023-05-06T10:42:10.927Z,2744.00
2023-05-06T10:43:10.896Z,2732.00
2023-05-06T10:44:10.920Z,2655.00
2023-05-06T10:45:11.120Z,2703.00
2023-05-06T10:46:10.988Z,2592.00
2023-05-06T10:47:10.890Z,2554.00
2023-05-06T10:48:10.957Z,2658.00
2023-05-06T10:49:11.015Z,2660.00
2023-05-06T10:50:10.894Z,2670.00
2023-05-06T10:51:10.906Z,2733.00
2023-05-06T10:52:10.912Z,2679.00
2023-05-06T10:53:10.913Z,2651.00
2023-05-06T10:54:10.897Z,2725.00
2023-05-06T10:55:11.055Z,2753.00
2023-05-06T10:56:10.925Z,2668.00
2023-05-06T10:57:10.959Z,2712.00
2023-05-06T10:58:10.899Z,2766.00
2023-05-06T10:59:10.899Z,2782.00
2023-05-06T11:00:10.904Z,2797.00
2023-05-06T11:01:10.942Z,2715.00
2023-05-06T11:02:10.918Z,2667.00
2023-05-06T11:03:11.000Z,2770.00
2023-05-06T11:04:10.913Z,2799.00
2023-05-06T11:05:11.085Z,2804.00
2023-05-06T11:06:10.888Z,2830.00
2023-05-06T11:07:10.937Z,2822.00
2023-05-06T11:08:10.918Z,2824.00
2023-05-06T11:09:10.918Z,2759.00
2023-05-06T11:10:10.935Z,2776.00
2023-05-06T11:11:10.911Z,2757.00
2023-05-06T11:12:10.883Z,2817.00
2023-05-06T11:13:11.051Z,2842.00
2023-05-06T11:14:10.924Z,2854.00
2023-05-06T11:15:11.133Z,2847.00
2023-05-06T11:16:10.925Z,2838.00
2023-05-06T11:17:10.964Z,2847.00
2023-05-06T11:18:10.924Z,2746.00
2023-05-06T11:19:10.911Z,2698.00
2023-05-06T11:20:11.194Z,2768.00
2023-05-06T11:21:10.890Z,2806.00
2023-05-06T11:22:10.953Z,2775.00
2023-05-06T11:23:10.883Z,2690.00
2023-05-06T11:24:10.873Z,2724.00
2023-05-06T11:25:10.878Z,2723.00
2023-05-06T11:26:10.886Z,2772.00
2023-05-06T11:27:10.848Z,2800.00
2023-05-06T11:28:10.873Z,2695.00
2023-05-06T11:29:10.945Z,2643.00
2023-05-06T11:30:11.088Z,2569.00
2023-05-06T11:31:10.860Z,2499.00
2023-05-06T11:32:10.833Z,2481.00
2023-05-06T11:33:10.846Z,2480.00
2023-05-06T11:34:10.853Z,2337.00
2023-05-06T11:35:10.853Z,2222.00
2023-05-06T11:36:10.810Z,2116.00
2023-05-06T11:37:10.822Z,1994.00
2023-05-06T11:38:10.923Z,1953.00
2023-05-06T11:39:10.808Z,1957.00
2023-05-06T11:40:11.090Z,1977.00
2023-05-06T11:41:10.829Z,1924.00
2023-05-06T11:42:10.828Z,1838.00
2023-05-06T11:43:10.837Z,1790.00
2023-05-06T11:44:11.635Z,1762.00
2023-05-06T11:45:10.857Z,1787.00
2023-05-06T11:46:10.862Z,1849.00
2023-05-06T11:47:10.821Z,1892.00
2023-05-06T11:48:10.817Z,1906.00
2023-05-06T11:49:10.792Z,1916.00
2023-05-06T11:50:11.094Z,1930.00
2023-05-06T11:51:10.815Z,1948.00
2023-05-06T11:52:10.861Z,1959.00
2023-05-06T11:53:10.805Z,1951.00
2023-05-06T11:54:10.824Z,1913.00
2023-05-06T11:55:10.788Z,2016.00
2023-05-06T11:56:10.836Z,2116.00
2023-05-06T11:57:10.811Z,2063.00
2023-05-06T11:58:10.805Z,2088.00
2023-05-06T11:59:10.788Z,2152.00
2023-05-06T12:00:10.926Z,2061.00
2023-05-06T12:01:10.771Z,1995.00
2023-05-06T12:02:10.773Z,1973.00
2023-05-06T12:03:10.815Z,1992.00
2023-05-06T12:04:10.843Z,2116.00
2023-05-06T12:05:10.799Z,2138.00